IBC4428 LEBL-LFPO
Flight info
| Callsign | IBC4428 |
|---|---|
| Flight time | 1h 32m |
| Altitude | 34000 |
| Route | DALIN N870 DIBER A6 MTL A3 MOU |
| Aircraft | A320/M-SDE3FGHIRWY/LB1 |
Departure
| Time | 2026-05-05 14:35 |
|---|---|
| Airport | Josep Tarradellas Barcelona-El Prat Airport (LEBL) |
Arrival
| Time | 2026-05-05 16:08 |
|---|---|
| Airport | Paris-Orly Airport (LFPO) |
| Time | Latitude | Longitude | Altitude | Speed | Heading |
|---|---|---|---|---|---|
| 2026-05-05 14:29 | 41.29725 | 2.08164 | 18 ft | 14 kts | 158° |
| 2026-05-05 14:29 | 41.29626 | 2.08221 | 17 ft | 16 kts | 156° |
| 2026-05-05 14:29 | 41.29516 | 2.08286 | 18 ft | 17 kts | 156° |
| 2026-05-05 14:30 | 41.29408 | 2.08353 | 18 ft | 17 kts | 157° |
| 2026-05-05 14:30 | 41.29301 | 2.08417 | 22 ft | 17 kts | 155° |
| 2026-05-05 14:30 | 41.29193 | 2.08482 | 20 ft | 18 kts | 156° |
| 2026-05-05 14:30 | 41.29070 | 2.08557 | 18 ft | 20 kts | 154° |
| 2026-05-05 14:31 | 41.28950 | 2.08631 | 18 ft | 16 kts | 156° |
| 2026-05-05 14:31 | 41.28864 | 2.08720 | 17 ft | 15 kts | 95° |
| 2026-05-05 14:31 | 41.28904 | 2.08851 | 17 ft | 16 kts | 65° |
| 2026-05-05 14:31 | 41.28954 | 2.08992 | 17 ft | 18 kts | 64° |
| 2026-05-05 14:32 | 41.29010 | 2.09144 | 18 ft | 19 kts | 65° |
| 2026-05-05 14:32 | 41.29064 | 2.09312 | 17 ft | 20 kts | 68° |
| 2026-05-05 14:32 | 41.29122 | 2.09488 | 17 ft | 21 kts | 65° |
| 2026-05-05 14:32 | 41.29187 | 2.09673 | 17 ft | 23 kts | 65° |
| 2026-05-05 14:33 | 41.29229 | 2.09801 | 17 ft | 23 kts | 66° |
| 2026-05-05 14:33 | 41.29287 | 2.10000 | 16 ft | 21 kts | 99° |
| 2026-05-05 14:33 | 41.29232 | 2.10182 | 18 ft | 14 kts | 108° |
| 2026-05-05 14:33 | 41.29188 | 2.10205 | 17 ft | 11 kts | 209° |
| 2026-05-05 14:34 | 41.29154 | 2.10128 | 19 ft | 9 kts | 245° |
| 2026-05-05 14:34 | 41.29132 | 2.10064 | 21 ft | 7 kts | 245° |
| 2026-05-05 14:34 | 41.29093 | 2.09956 | 20 ft | 38 kts | 244° |
| 2026-05-05 14:34 | 41.28876 | 2.09320 | 18 ft | 109 kts | 247° |
| 2026-05-05 14:35 | 41.28455 | 2.08192 | 51 ft | 158 kts | 239° |
| 2026-05-05 14:35 | 41.27950 | 2.06919 | 769 ft | 154 kts | 236° |
| 2026-05-05 14:35 | 41.27148 | 2.06023 | 1471 ft | 158 kts | 194° |
| 2026-05-05 14:35 | 41.25984 | 2.05925 | 1811 ft | 179 kts | 181° |
| 2026-05-05 14:36 | 41.24657 | 2.05899 | 2120 ft | 201 kts | 182° |
| 2026-05-05 14:36 | 41.23209 | 2.05862 | 2611 ft | 212 kts | 183° |
| 2026-05-05 14:36 | 41.21740 | 2.05820 | 3287 ft | 215 kts | 184° |
| 2026-05-05 14:36 | 41.20235 | 2.05773 | 4050 ft | 217 kts | 183° |
| 2026-05-05 14:37 | 41.18715 | 2.05722 | 4828 ft | 219 kts | 184° |
| 2026-05-05 14:37 | 41.17183 | 2.05668 | 5553 ft | 222 kts | 184° |
| 2026-05-05 14:37 | 41.15580 | 2.05598 | 6078 ft | 236 kts | 184° |
| 2026-05-05 14:37 | 41.13918 | 2.05518 | 6798 ft | 240 kts | 185° |
| 2026-05-05 14:38 | 41.12240 | 2.05436 | 7628 ft | 242 kts | 185° |
| 2026-05-05 14:38 | 41.10557 | 2.05355 | 8494 ft | 242 kts | 185° |
| 2026-05-05 14:38 | 41.08870 | 2.05275 | 9390 ft | 244 kts | 185° |
| 2026-05-05 14:38 | 41.07162 | 2.05194 | 10253 ft | 245 kts | 186° |
| 2026-05-05 14:39 | 41.05475 | 2.05112 | 11036 ft | 247 kts | 186° |
| 2026-05-05 14:39 | 41.03746 | 2.05028 | 11838 ft | 249 kts | 186° |
| 2026-05-05 14:39 | 41.02003 | 2.05010 | 12630 ft | 254 kts | 177° |
| 2026-05-05 14:39 | 41.00296 | 2.05773 | 13346 ft | 268 kts | 153° |
| 2026-05-05 14:40 | 40.98899 | 2.07546 | 13731 ft | 298 kts | 127° |
| 2026-05-05 14:40 | 40.98064 | 2.10173 | 13871 ft | 327 kts | 114° |
| 2026-05-05 14:40 | 40.97296 | 2.13140 | 13995 ft | 351 kts | 113° |
| 2026-05-05 14:40 | 40.96488 | 2.16291 | 14116 ft | 372 kts | 113° |
| 2026-05-05 14:41 | 40.95638 | 2.19613 | 14392 ft | 386 kts | 113° |
| 2026-05-05 14:41 | 40.95029 | 2.23127 | 14884 ft | 399 kts | 98° |
| 2026-05-05 14:41 | 40.95184 | 2.26846 | 15420 ft | 411 kts | 80° |
| 2026-05-05 14:41 | 40.96150 | 2.30392 | 15945 ft | 420 kts | 62° |
| 2026-05-05 14:42 | 40.97913 | 2.33507 | 16483 ft | 425 kts | 45° |
| 2026-05-05 14:42 | 41.00011 | 2.36306 | 17025 ft | 429 kts | 44° |
| 2026-05-05 14:42 | 41.02130 | 2.39118 | 17573 ft | 433 kts | 44° |
| 2026-05-05 14:42 | 41.04271 | 2.41956 | 18111 ft | 438 kts | 44° |
| 2026-05-05 14:43 | 41.06414 | 2.44802 | 18565 ft | 442 kts | 44° |
| 2026-05-05 14:43 | 41.08594 | 2.47710 | 19010 ft | 446 kts | 44° |
| 2026-05-05 14:43 | 41.10798 | 2.50665 | 19462 ft | 450 kts | 44° |
| 2026-05-05 14:43 | 41.12985 | 2.53606 | 19901 ft | 454 kts | 44° |
| 2026-05-05 14:44 | 41.15219 | 2.56613 | 20341 ft | 458 kts | 44° |
| 2026-05-05 14:44 | 41.17471 | 2.59647 | 20774 ft | 462 kts | 44° |
| 2026-05-05 14:44 | 41.19741 | 2.62703 | 21202 ft | 466 kts | 44° |
| 2026-05-05 14:44 | 41.22031 | 2.65786 | 21627 ft | 470 kts | 44° |
| 2026-05-05 14:45 | 41.24337 | 2.68888 | 22052 ft | 473 kts | 44° |
| 2026-05-05 14:45 | 41.26634 | 2.71982 | 22465 ft | 477 kts | 44° |
| 2026-05-05 14:45 | 41.28978 | 2.75143 | 22876 ft | 481 kts | 44° |
| 2026-05-05 14:45 | 41.31339 | 2.78338 | 23283 ft | 484 kts | 44° |
| 2026-05-05 14:46 | 41.33710 | 2.81556 | 23644 ft | 488 kts | 44° |
| 2026-05-05 14:46 | 41.36102 | 2.84800 | 23966 ft | 491 kts | 44° |
| 2026-05-05 14:46 | 41.38478 | 2.88021 | 24281 ft | 494 kts | 44° |
| 2026-05-05 14:46 | 41.40898 | 2.91300 | 24602 ft | 498 kts | 44° |
| 2026-05-05 14:47 | 41.43341 | 2.94615 | 24915 ft | 501 kts | 44° |
| 2026-05-05 14:47 | 41.45789 | 2.97946 | 25214 ft | 504 kts | 44° |
| 2026-05-05 14:47 | 41.48229 | 3.01272 | 25521 ft | 507 kts | 44° |
| 2026-05-05 14:47 | 41.50702 | 3.04652 | 25831 ft | 510 kts | 44° |
| 2026-05-05 14:48 | 41.53200 | 3.08067 | 26133 ft | 514 kts | 44° |
| 2026-05-05 14:48 | 41.55707 | 3.11491 | 26438 ft | 517 kts | 44° |
| 2026-05-05 14:48 | 41.58229 | 3.14937 | 26728 ft | 520 kts | 44° |
| 2026-05-05 14:48 | 41.60772 | 3.18419 | 27007 ft | 523 kts | 44° |
| 2026-05-05 14:49 | 41.63291 | 3.21873 | 27278 ft | 526 kts | 44° |
| 2026-05-05 14:49 | 41.65854 | 3.25395 | 27548 ft | 529 kts | 44° |
| 2026-05-05 14:49 | 41.68437 | 3.28956 | 27809 ft | 532 kts | 44° |
| 2026-05-05 14:49 | 41.70991 | 3.32484 | 28083 ft | 535 kts | 45° |
| 2026-05-05 14:50 | 41.73591 | 3.36081 | 28323 ft | 537 kts | 44° |
| 2026-05-05 14:50 | 41.76211 | 3.39691 | 28599 ft | 540 kts | 44° |
| 2026-05-05 14:50 | 41.78812 | 3.43268 | 28858 ft | 542 kts | 44° |
| 2026-05-05 14:50 | 41.81449 | 3.46897 | 29110 ft | 545 kts | 44° |
| 2026-05-05 14:51 | 41.84102 | 3.50548 | 29467 ft | 545 kts | 44° |
| 2026-05-05 14:51 | 41.86751 | 3.54197 | 29845 ft | 545 kts | 44° |
| 2026-05-05 14:51 | 41.88777 | 3.56990 | 30101 ft | 545 kts | 44° |
| 2026-05-05 14:51 | 41.91425 | 3.60638 | 30419 ft | 545 kts | 44° |
| 2026-05-05 14:52 | 41.94040 | 3.64235 | 30759 ft | 544 kts | 44° |
| 2026-05-05 14:52 | 41.96655 | 3.67827 | 31097 ft | 543 kts | 44° |
| 2026-05-05 14:52 | 41.99307 | 3.71465 | 31442 ft | 542 kts | 44° |
| 2026-05-05 14:52 | 42.01923 | 3.75050 | 31778 ft | 541 kts | 44° |
| 2026-05-05 14:53 | 42.04567 | 3.78667 | 32110 ft | 541 kts | 44° |
| 2026-05-05 14:53 | 42.07215 | 3.82288 | 32434 ft | 540 kts | 44° |
| 2026-05-05 14:53 | 42.09856 | 3.85893 | 32774 ft | 540 kts | 44° |
| 2026-05-05 14:53 | 42.12469 | 3.89456 | 33101 ft | 539 kts | 44° |
| 2026-05-05 14:54 | 42.15110 | 3.93052 | 33441 ft | 538 kts | 44° |
| 2026-05-05 14:54 | 42.17752 | 3.96644 | 33767 ft | 538 kts | 44° |
| 2026-05-05 14:54 | 42.20392 | 4.00230 | 33905 ft | 538 kts | 44° |
| 2026-05-05 14:54 | 42.23033 | 4.03816 | 33922 ft | 538 kts | 44° |
| 2026-05-05 14:55 | 42.28275 | 4.10940 | 33921 ft | 537 kts | 44° |
| 2026-05-05 14:55 | 42.33553 | 4.18122 | 33922 ft | 538 kts | 44° |
| 2026-05-05 14:56 | 42.38828 | 4.25310 | 33918 ft | 538 kts | 44° |
| 2026-05-05 14:56 | 42.44070 | 4.32462 | 33924 ft | 538 kts | 45° |
| 2026-05-05 14:57 | 42.49370 | 4.39701 | 33918 ft | 538 kts | 45° |
| 2026-05-05 14:57 | 42.54623 | 4.46882 | 33923 ft | 538 kts | 45° |
| 2026-05-05 14:58 | 42.59895 | 4.54095 | 33922 ft | 538 kts | 45° |
| 2026-05-05 14:58 | 42.65445 | 4.60867 | 33921 ft | 534 kts | 28° |
| 2026-05-05 14:59 | 42.72018 | 4.65326 | 33906 ft | 531 kts | 21° |
| 2026-05-05 14:59 | 42.78724 | 4.69618 | 33911 ft | 532 kts | 21° |
| 2026-05-05 15:00 | 42.84305 | 4.73196 | 33916 ft | 532 kts | 21° |
| 2026-05-05 15:00 | 42.92079 | 4.78222 | 33926 ft | 532 kts | 21° |
| 2026-05-05 15:01 | 42.98787 | 4.82587 | 33932 ft | 532 kts | 21° |
| 2026-05-05 15:01 | 43.05431 | 4.86921 | 33937 ft | 531 kts | 21° |
| 2026-05-05 15:02 | 43.12123 | 4.91287 | 33946 ft | 531 kts | 21° |
| 2026-05-05 15:02 | 43.18654 | 4.95548 | 33946 ft | 530 kts | 21° |
| 2026-05-05 15:03 | 43.25017 | 4.99706 | 33931 ft | 530 kts | 21° |
| 2026-05-05 15:03 | 43.31662 | 5.04006 | 33940 ft | 527 kts | 17° |
| 2026-05-05 15:04 | 43.38654 | 5.06420 | 33943 ft | 511 kts | 359° |
| 2026-05-05 15:04 | 43.45577 | 5.06160 | 33928 ft | 492 kts | 341° |
| 2026-05-05 15:05 | 43.55473 | 5.02845 | 33929 ft | 486 kts | 337° |
| 2026-05-05 15:06 | 43.62000 | 5.00589 | 33932 ft | 486 kts | 337° |
| 2026-05-05 15:06 | 43.68464 | 4.98352 | 33935 ft | 485 kts | 337° |
| 2026-05-05 15:07 | 43.75125 | 4.96034 | 33934 ft | 485 kts | 337° |
| 2026-05-05 15:07 | 43.81648 | 4.93752 | 33933 ft | 484 kts | 337° |
| 2026-05-05 15:08 | 43.88189 | 4.91457 | 33934 ft | 484 kts | 337° |
| 2026-05-05 15:08 | 43.94852 | 4.89743 | 33934 ft | 492 kts | 344° |
| 2026-05-05 15:09 | 44.01649 | 4.88446 | 33937 ft | 492 kts | 343° |
| 2026-05-05 15:09 | 44.08414 | 4.87146 | 33907 ft | 491 kts | 343° |
| 2026-05-05 15:10 | 44.15203 | 4.85843 | 33909 ft | 491 kts | 343° |
| 2026-05-05 15:10 | 44.21933 | 4.84547 | 33908 ft | 490 kts | 343° |
| 2026-05-05 15:11 | 44.28701 | 4.83229 | 33906 ft | 490 kts | 343° |
| 2026-05-05 15:11 | 44.35422 | 4.81910 | 33904 ft | 489 kts | 343° |
| 2026-05-05 15:12 | 44.42186 | 4.80592 | 33906 ft | 489 kts | 344° |
| 2026-05-05 15:12 | 44.48908 | 4.79287 | 33912 ft | 489 kts | 344° |
| 2026-05-05 15:13 | 44.55618 | 4.77755 | 33916 ft | 481 kts | 337° |
| 2026-05-05 15:13 | 44.61843 | 4.74716 | 33918 ft | 474 kts | 331° |
| 2026-05-05 15:14 | 44.68048 | 4.71518 | 33914 ft | 474 kts | 332° |
| 2026-05-05 15:14 | 44.74262 | 4.68346 | 33910 ft | 474 kts | 332° |
| 2026-05-05 15:15 | 44.80461 | 4.65158 | 33907 ft | 473 kts | 332° |
| 2026-05-05 15:15 | 44.86591 | 4.61978 | 33916 ft | 472 kts | 332° |
| 2026-05-05 15:16 | 44.92762 | 4.58764 | 33908 ft | 472 kts | 332° |
| 2026-05-05 15:16 | 44.98935 | 4.55550 | 33911 ft | 472 kts | 333° |
| 2026-05-05 15:17 | 45.05071 | 4.52356 | 33913 ft | 472 kts | 333° |
| 2026-05-05 15:17 | 45.11242 | 4.49135 | 33910 ft | 472 kts | 333° |
| 2026-05-05 15:18 | 45.17412 | 4.45910 | 33904 ft | 472 kts | 333° |
| 2026-05-05 15:18 | 45.23579 | 4.42677 | 33908 ft | 472 kts | 334° |
| 2026-05-05 15:19 | 45.29722 | 4.39446 | 33903 ft | 473 kts | 334° |
| 2026-05-05 15:19 | 45.34866 | 4.36730 | 33893 ft | 473 kts | 334° |
| 2026-05-05 15:20 | 45.41049 | 4.33461 | 33887 ft | 473 kts | 334° |
| 2026-05-05 15:20 | 45.47201 | 4.30209 | 33893 ft | 473 kts | 335° |
| 2026-05-05 15:21 | 45.53388 | 4.26932 | 33897 ft | 473 kts | 335° |
| 2026-05-05 15:21 | 45.59524 | 4.23663 | 33902 ft | 473 kts | 335° |
| 2026-05-05 15:22 | 45.65692 | 4.20374 | 33904 ft | 472 kts | 335° |
| 2026-05-05 15:22 | 45.71860 | 4.17075 | 33897 ft | 472 kts | 335° |
| 2026-05-05 15:23 | 45.77978 | 4.13802 | 33895 ft | 472 kts | 335° |
| 2026-05-05 15:23 | 45.84128 | 4.10506 | 33891 ft | 472 kts | 336° |
| 2026-05-05 15:24 | 45.90288 | 4.07186 | 33882 ft | 472 kts | 336° |
| 2026-05-05 15:24 | 45.96412 | 4.03875 | 33883 ft | 472 kts | 336° |
| 2026-05-05 15:25 | 46.02563 | 4.00546 | 33883 ft | 472 kts | 336° |
| 2026-05-05 15:25 | 46.08681 | 3.97237 | 33873 ft | 472 kts | 336° |
| 2026-05-05 15:26 | 46.14838 | 3.93891 | 33866 ft | 472 kts | 336° |
| 2026-05-05 15:26 | 46.20969 | 3.90580 | 33868 ft | 472 kts | 336° |
| 2026-05-05 15:27 | 46.27140 | 3.87249 | 33867 ft | 472 kts | 336° |
| 2026-05-05 15:27 | 46.33257 | 3.83924 | 33869 ft | 472 kts | 336° |
| 2026-05-05 15:28 | 46.39395 | 3.80545 | 33869 ft | 471 kts | 336° |
| 2026-05-05 15:28 | 46.45484 | 3.77009 | 33871 ft | 471 kts | 335° |
| 2026-05-05 15:29 | 46.51595 | 3.73516 | 33868 ft | 471 kts | 336° |
| 2026-05-05 15:29 | 46.57712 | 3.70210 | 33869 ft | 471 kts | 338° |
| 2026-05-05 15:30 | 46.63868 | 3.66915 | 33863 ft | 471 kts | 338° |
| 2026-05-05 15:30 | 46.70184 | 3.64295 | 33860 ft | 474 kts | 351° |
| 2026-05-05 15:31 | 46.76737 | 3.64416 | 33857 ft | 475 kts | 7° |
| 2026-05-05 15:31 | 46.83303 | 3.65814 | 33852 ft | 476 kts | 7° |
| 2026-05-05 15:32 | 46.89827 | 3.67193 | 33851 ft | 476 kts | 7° |
| 2026-05-05 15:32 | 46.96387 | 3.68573 | 33849 ft | 476 kts | 8° |
| 2026-05-05 15:33 | 47.02961 | 3.69966 | 33853 ft | 476 kts | 8° |
| 2026-05-05 15:33 | 47.09493 | 3.71351 | 33853 ft | 475 kts | 8° |
| 2026-05-05 15:34 | 47.16037 | 3.72742 | 33850 ft | 475 kts | 8° |
| 2026-05-05 15:34 | 47.22583 | 3.74140 | 33850 ft | 475 kts | 8° |
| 2026-05-05 15:35 | 47.29091 | 3.75527 | 33847 ft | 474 kts | 8° |
| 2026-05-05 15:35 | 47.35625 | 3.76935 | 33854 ft | 472 kts | 8° |
| 2026-05-05 15:36 | 47.42133 | 3.78337 | 33849 ft | 471 kts | 8° |
| 2026-05-05 15:36 | 47.48588 | 3.79723 | 33841 ft | 471 kts | 9° |
| 2026-05-05 15:37 | 47.55111 | 3.80376 | 33838 ft | 470 kts | 355° |
| 2026-05-05 15:37 | 47.61361 | 3.78124 | 33826 ft | 468 kts | 336° |
| 2026-05-05 15:38 | 47.67358 | 3.74449 | 33823 ft | 468 kts | 337° |
| 2026-05-05 15:38 | 47.73413 | 3.70822 | 33817 ft | 468 kts | 338° |
| 2026-05-05 15:39 | 47.79469 | 3.67190 | 33809 ft | 468 kts | 338° |
| 2026-05-05 15:39 | 47.85472 | 3.63558 | 33807 ft | 468 kts | 338° |
| 2026-05-05 15:40 | 47.91511 | 3.59878 | 33810 ft | 468 kts | 338° |
| 2026-05-05 15:40 | 47.94524 | 3.58008 | 33673 ft | 469 kts | 335° |
| 2026-05-05 15:40 | 47.97325 | 3.55497 | 32792 ft | 470 kts | 320° |
| 2026-05-05 15:40 | 47.99652 | 3.52163 | 32033 ft | 469 kts | 313° |
| 2026-05-05 15:41 | 48.01915 | 3.48665 | 31378 ft | 466 kts | 314° |
| 2026-05-05 15:41 | 48.04167 | 3.45207 | 30762 ft | 462 kts | 314° |
| 2026-05-05 15:41 | 48.06407 | 3.41787 | 30162 ft | 458 kts | 314° |
| 2026-05-05 15:41 | 48.08632 | 3.38393 | 29530 ft | 455 kts | 314° |
| 2026-05-05 15:42 | 48.10841 | 3.35021 | 28894 ft | 450 kts | 314° |
| 2026-05-05 15:42 | 48.13021 | 3.31684 | 28304 ft | 446 kts | 314° |
| 2026-05-05 15:42 | 48.15177 | 3.28380 | 27735 ft | 441 kts | 314° |
| 2026-05-05 15:42 | 48.17287 | 3.25135 | 27572 ft | 427 kts | 314° |
| 2026-05-05 15:43 | 48.19299 | 3.22035 | 27438 ft | 413 kts | 314° |
| 2026-05-05 15:43 | 48.21276 | 3.18989 | 27248 ft | 401 kts | 315° |
| 2026-05-05 15:43 | 48.23214 | 3.16005 | 26877 ft | 395 kts | 315° |
| 2026-05-05 15:43 | 48.25099 | 3.13104 | 26454 ft | 390 kts | 315° |
| 2026-05-05 15:44 | 48.26985 | 3.10200 | 25989 ft | 387 kts | 314° |
| 2026-05-05 15:44 | 48.28858 | 3.07308 | 25547 ft | 384 kts | 314° |
| 2026-05-05 15:44 | 48.30715 | 3.04433 | 25158 ft | 381 kts | 314° |
| 2026-05-05 15:44 | 48.32564 | 3.01570 | 24806 ft | 379 kts | 314° |
| 2026-05-05 15:45 | 48.34374 | 2.98767 | 24460 ft | 376 kts | 314° |
| 2026-05-05 15:45 | 48.36191 | 2.95952 | 24072 ft | 373 kts | 314° |
| 2026-05-05 15:45 | 48.37995 | 2.93147 | 23673 ft | 371 kts | 314° |
| 2026-05-05 15:45 | 48.39782 | 2.90359 | 23289 ft | 368 kts | 313° |
| 2026-05-05 15:46 | 48.41555 | 2.87590 | 22862 ft | 365 kts | 313° |
| 2026-05-05 15:46 | 48.43315 | 2.84846 | 22426 ft | 363 kts | 313° |
| 2026-05-05 15:46 | 48.44841 | 2.81855 | 21991 ft | 359 kts | 296° |
| 2026-05-05 15:46 | 48.45621 | 2.78378 | 21564 ft | 354 kts | 277° |
| 2026-05-05 15:47 | 48.45786 | 2.74692 | 21096 ft | 351 kts | 271° |
| 2026-05-05 15:47 | 48.45855 | 2.72258 | 20802 ft | 350 kts | 271° |
| 2026-05-05 15:47 | 48.45989 | 2.67375 | 20229 ft | 347 kts | 271° |
| 2026-05-05 15:47 | 48.46090 | 2.63727 | 19801 ft | 346 kts | 271° |
| 2026-05-05 15:48 | 48.46225 | 2.60124 | 19394 ft | 344 kts | 272° |
| 2026-05-05 15:48 | 48.46395 | 2.56581 | 18988 ft | 343 kts | 273° |
| 2026-05-05 15:48 | 48.46583 | 2.52993 | 18586 ft | 341 kts | 273° |
| 2026-05-05 15:48 | 48.46773 | 2.49426 | 18208 ft | 340 kts | 273° |
| 2026-05-05 15:49 | 48.46957 | 2.45912 | 17800 ft | 339 kts | 273° |
| 2026-05-05 15:49 | 48.47136 | 2.42379 | 17393 ft | 338 kts | 274° |
| 2026-05-05 15:49 | 48.47307 | 2.38849 | 16988 ft | 336 kts | 274° |
| 2026-05-05 15:49 | 48.47473 | 2.35327 | 16616 ft | 334 kts | 274° |
| 2026-05-05 15:50 | 48.47633 | 2.31842 | 16261 ft | 332 kts | 274° |
| 2026-05-05 15:50 | 48.47792 | 2.28375 | 15909 ft | 330 kts | 274° |
| 2026-05-05 15:50 | 48.47950 | 2.24936 | 15575 ft | 328 kts | 274° |
| 2026-05-05 15:50 | 48.48105 | 2.21561 | 15240 ft | 325 kts | 274° |
| 2026-05-05 15:51 | 48.48262 | 2.18164 | 14902 ft | 323 kts | 274° |
| 2026-05-05 15:51 | 48.48416 | 2.14791 | 14574 ft | 321 kts | 274° |
| 2026-05-05 15:51 | 48.48568 | 2.11430 | 14258 ft | 319 kts | 274° |
| 2026-05-05 15:51 | 48.48715 | 2.08103 | 13951 ft | 317 kts | 274° |
| 2026-05-05 15:52 | 48.48858 | 2.04801 | 13641 ft | 315 kts | 274° |
| 2026-05-05 15:52 | 48.49004 | 2.01481 | 12891 ft | 324 kts | 274° |
| 2026-05-05 15:52 | 48.49158 | 1.98009 | 11974 ft | 338 kts | 274° |
| 2026-05-05 15:52 | 48.49317 | 1.94447 | 11055 ft | 349 kts | 274° |
| 2026-05-05 15:53 | 48.49480 | 1.90735 | 10126 ft | 359 kts | 274° |
| 2026-05-05 15:53 | 48.49644 | 1.86927 | 9141 ft | 367 kts | 274° |
| 2026-05-05 15:53 | 48.49805 | 1.83102 | 8126 ft | 373 kts | 274° |
| 2026-05-05 15:53 | 48.49969 | 1.79171 | 7115 ft | 378 kts | 274° |
| 2026-05-05 15:54 | 48.50132 | 1.75187 | 6115 ft | 381 kts | 275° |
| 2026-05-05 15:54 | 48.50293 | 1.71212 | 5551 ft | 371 kts | 275° |
| 2026-05-05 15:54 | 48.50440 | 1.67451 | 5450 ft | 347 kts | 275° |
| 2026-05-05 15:54 | 48.50580 | 1.63931 | 5401 ft | 325 kts | 275° |
| 2026-05-05 15:55 | 48.50635 | 1.60622 | 5350 ft | 307 kts | 265° |
| 2026-05-05 15:55 | 48.49995 | 1.57694 | 5299 ft | 292 kts | 239° |
| 2026-05-05 15:55 | 48.48617 | 1.55568 | 5246 ft | 281 kts | 211° |
| 2026-05-05 15:55 | 48.46781 | 1.54644 | 5200 ft | 279 kts | 183° |
| 2026-05-05 15:56 | 48.44894 | 1.55093 | 5145 ft | 275 kts | 155° |
| 2026-05-05 15:56 | 48.43384 | 1.56789 | 5090 ft | 271 kts | 126° |
| 2026-05-05 15:56 | 48.42598 | 1.59321 | 5031 ft | 267 kts | 97° |
| 2026-05-05 15:56 | 48.42710 | 1.62070 | 4981 ft | 264 kts | 71° |
| 2026-05-05 15:57 | 48.43563 | 1.64464 | 4935 ft | 263 kts | 52° |
| 2026-05-05 15:57 | 48.44650 | 1.66685 | 4874 ft | 263 kts | 51° |
| 2026-05-05 15:57 | 48.45735 | 1.68894 | 4841 ft | 262 kts | 52° |
| 2026-05-05 15:57 | 48.46819 | 1.71103 | 4779 ft | 262 kts | 52° |
| 2026-05-05 15:58 | 48.47902 | 1.73316 | 4729 ft | 262 kts | 52° |
| 2026-05-05 15:58 | 48.48979 | 1.75527 | 4675 ft | 261 kts | 52° |
| 2026-05-05 15:58 | 48.50055 | 1.77740 | 4639 ft | 261 kts | 52° |
| 2026-05-05 15:58 | 48.51115 | 1.79919 | 4579 ft | 261 kts | 52° |
| 2026-05-05 15:59 | 48.52193 | 1.82133 | 4527 ft | 261 kts | 52° |
| 2026-05-05 15:59 | 48.53266 | 1.84339 | 4478 ft | 260 kts | 52° |
| 2026-05-05 15:59 | 48.54339 | 1.86540 | 4429 ft | 261 kts | 52° |
| 2026-05-05 15:59 | 48.55414 | 1.88747 | 4380 ft | 260 kts | 52° |
| 2026-05-05 16:00 | 48.56479 | 1.90942 | 4322 ft | 259 kts | 52° |
| 2026-05-05 16:00 | 48.57538 | 1.93135 | 4237 ft | 255 kts | 52° |
| 2026-05-05 16:00 | 48.58564 | 1.95250 | 4110 ft | 242 kts | 50° |
| 2026-05-05 16:00 | 48.59583 | 1.97203 | 4002 ft | 230 kts | 54° |
| 2026-05-05 16:01 | 48.60396 | 1.99195 | 4001 ft | 218 kts | 58° |
| 2026-05-05 16:01 | 48.61112 | 2.01166 | 4002 ft | 216 kts | 59° |
| 2026-05-05 16:01 | 48.61823 | 2.03153 | 4003 ft | 212 kts | 60° |
| 2026-05-05 16:01 | 48.62497 | 2.05041 | 4022 ft | 195 kts | 59° |
| 2026-05-05 16:02 | 48.63107 | 2.06745 | 3970 ft | 173 kts | 59° |
| 2026-05-05 16:02 | 48.63637 | 2.08230 | 3822 ft | 150 kts | 58° |
| 2026-05-05 16:02 | 48.64117 | 2.09569 | 3639 ft | 142 kts | 59° |
| 2026-05-05 16:02 | 48.64579 | 2.10859 | 3470 ft | 140 kts | 58° |
| 2026-05-05 16:03 | 48.64696 | 2.11185 | 3430 ft | 139 kts | 58° |
| 2026-05-05 16:03 | 48.65143 | 2.12440 | 3245 ft | 136 kts | 57° |
| 2026-05-05 16:03 | 48.65478 | 2.13374 | 3116 ft | 135 kts | 58° |
| 2026-05-05 16:03 | 48.65942 | 2.14673 | 2923 ft | 136 kts | 58° |
| 2026-05-05 16:04 | 48.66389 | 2.15925 | 2744 ft | 135 kts | 58° |
| 2026-05-05 16:04 | 48.66833 | 2.17168 | 2563 ft | 134 kts | 59° |
| 2026-05-05 16:04 | 48.67276 | 2.18411 | 2378 ft | 134 kts | 57° |
| 2026-05-05 16:04 | 48.67717 | 2.19650 | 2195 ft | 133 kts | 58° |
| 2026-05-05 16:05 | 48.68156 | 2.20883 | 2008 ft | 133 kts | 57° |
| 2026-05-05 16:05 | 48.68598 | 2.22123 | 1834 ft | 133 kts | 57° |
| 2026-05-05 16:05 | 48.69035 | 2.23352 | 1666 ft | 134 kts | 58° |
| 2026-05-05 16:05 | 48.69474 | 2.24586 | 1449 ft | 133 kts | 57° |
| 2026-05-05 16:06 | 48.69768 | 2.25414 | 1321 ft | 135 kts | 59° |
| 2026-05-05 16:06 | 48.70351 | 2.27055 | 1074 ft | 132 kts | 58° |
| 2026-05-05 16:06 | 48.70790 | 2.28291 | 892 ft | 134 kts | 58° |
| 2026-05-05 16:06 | 48.71231 | 2.29534 | 721 ft | 132 kts | 59° |
| 2026-05-05 16:07 | 48.71667 | 2.30761 | 534 ft | 133 kts | 57° |
| 2026-05-05 16:07 | 48.72104 | 2.31993 | 365 ft | 132 kts | 58° |
| 2026-05-05 16:07 | 48.72515 | 2.33145 | 300 ft | 108 kts | 59° |
| 2026-05-05 16:07 | 48.72792 | 2.33920 | 299 ft | 58 kts | 62° |
| 2026-05-05 16:08 | 48.72880 | 2.34182 | 299 ft | 26 kts | 62° |
| 2026-05-05 16:08 | 48.72954 | 2.34386 | 300 ft | 24 kts | 60° |
| 2026-05-05 16:08 | 48.73012 | 2.34772 | 298 ft | 32 kts | 81° |
| 2026-05-05 16:08 | 48.73034 | 2.35005 | 296 ft | 35 kts | 82° |
| 2026-05-05 16:09 | 48.73015 | 2.35297 | 299 ft | 19 kts | 89° |
| 2026-05-05 16:09 | 48.73066 | 2.35478 | 299 ft | 22 kts | 63° |
| 2026-05-05 16:09 | 48.73087 | 2.35617 | 300 ft | 2 kts | 141° |
| 2026-05-05 16:09 | 48.73070 | 2.35651 | 298 ft | 6 kts | 92° |
| 2026-05-05 16:10 | 48.73074 | 2.35705 | 295 ft | 4 kts | 86° |
| 2026-05-05 16:10 | 48.73035 | 2.35718 | 295 ft | 6 kts | 188° |
| 2026-05-05 16:10 | 48.73002 | 2.35708 | 296 ft | 5 kts | 189° |
| 2026-05-05 16:10 | 48.72991 | 2.35706 | 295 ft | 0 kts | 188° |